Time;durP1;ratioP1;P1;durP2;ratioP2;P2;SDS_P1;SDS_P2;PMS_P1;PMS_P2;Temp;Humidity;BMP_temperature;BMP_pressure;BME280_temperature;BME280_humidity;BME280_pressure;Samples;Min_cycle;Max_cycle;Signal;HPM_P1;HPM_P2
2023/05/17 00:00:47;;;;;;;3.63;1.70;;;16.80;43.10;;;;;;4986692;28;20198;-51
2023/05/17 00:03:13;;;;;;;2.53;1.97;;;16.80;43.10;;;;;;4986964;28;20190;-48
2023/05/17 00:05:38;;;;;;;4.13;1.60;;;16.80;43.10;;;;;;4986840;28;20278;-48
2023/05/17 00:08:04;;;;;;;4.13;2.20;;;16.70;43.20;;;;;;4981399;28;20253;-50
2023/05/17 00:10:30;;;;;;;3.13;1.63;;;16.70;43.40;;;;;;4988991;28;20182;-48
2023/05/17 00:12:55;;;;;;;2.80;2.07;;;16.60;43.60;;;;;;4989688;28;20245;-49
2023/05/17 00:15:21;;;;;;;2.93;1.43;;;16.50;43.70;;;;;;4988594;28;20222;-50
2023/05/17 00:17:46;;;;;;;2.27;1.70;;;16.50;43.80;;;;;;4988916;28;20222;-48
2023/05/17 00:20:12;;;;;;;2.80;1.60;;;16.40;43.60;;;;;;4987362;28;20257;-48
2023/05/17 00:22:39;;;;;;;2.57;1.60;;;16.30;43.70;;;;;;4988973;28;20271;-48
2023/05/17 00:25:05;;;;;;;4.23;1.70;;;16.20;44.00;;;;;;4989678;28;20233;-49
2023/05/17 00:27:31;;;;;;;1.90;1.60;;;16.20;44.20;;;;;;4992033;28;20464;-48
2023/05/17 00:29:57;;;;;;;1.87;1.40;;;16.20;44.20;;;;;;4992723;28;20441;-49
2023/05/17 00:32:22;;;;;;;4.10;1.80;;;16.20;44.20;;;;;;4994115;28;20179;-48
2023/05/17 00:34:48;;;;;;;3.63;2.20;;;16.20;44.50;;;;;;4993689;28;20248;-48
2023/05/17 00:37:13;;;;;;;4.00;1.97;;;16.20;44.90;;;;;;4994419;28;20701;-50
2023/05/17 00:39:39;;;;;;;3.07;1.97;;;16.30;46.20;;;;;;4993518;28;20194;-51
2023/05/17 00:42:05;;;;;;;3.07;1.30;;;16.40;47.60;;;;;;4996151;28;20530;-48
2023/05/17 00:44:31;;;;;;;2.00;1.80;;;16.50;47.00;;;;;;4989503;28;20219;-49
2023/05/17 00:46:58;;;;;;;4.40;1.80;;;16.60;45.90;;;;;;4982176;28;20194;-48
2023/05/17 00:49:25;;;;;;;2.10;1.50;;;16.70;45.90;;;;;;4993649;28;20216;-49
2023/05/17 00:51:52;;;;;;;2.53;1.37;;;16.70;45.20;;;;;;4993742;28;20455;-49
2023/05/17 00:54:17;;;;;;;4.10;1.60;;;16.70;44.50;;;;;;4990909;28;20446;-49
2023/05/17 00:56:43;;;;;;;1.50;1.40;;;16.80;44.50;;;;;;4992718;28;20457;-49
2023/05/17 00:59:12;;;;;;;2.87;1.47;;;16.80;44.20;;;;;;4992877;28;20432;-52
2023/05/17 01:01:41;;;;;;;4.30;1.30;;;16.80;43.40;;;;;;4990683;28;20444;-48
2023/05/17 01:04:08;;;;;;;2.83;1.10;;;16.70;43.40;;;;;;4992613;28;21055;-49
2023/05/17 01:06:35;;;;;;;1.27;1.17;;;16.70;43.40;;;;;;4993017;28;20437;-51
2023/05/17 01:09:01;;;;;;;2.77;1.33;;;16.70;43.70;;;;;;4995303;28;20437;-49
2023/05/17 01:11:44;;;;;;;3.13;1.57;;;16.70;43.90;;;;;;4995830;28;20434;-49
2023/05/17 01:14:47;;;;;;;3.90;1.33;;;16.80;45.30;;;;;;4996264;28;20468;-49
2023/05/17 01:17:19;;;;;;;3.03;1.40;;;16.90;45.00;;;;;;4991273;28;20992;-48
2023/05/17 01:20:00;;;;;;;2.60;1.27;;;16.90;45.00;;;;;;4992799;28;20524;-49
2023/05/17 01:22:47;;;;;;;1.30;1.20;;;17.00;45.30;;;;;;4991246;28;20442;-50
2023/05/17 01:25:17;;;;;;;4.57;1.87;;;17.00;44.70;;;;;;4998202;28;20487;-48
2023/05/17 01:27:47;;;;;;;2.80;1.63;;;17.00;44.70;;;;;;4990203;28;20500;-49
2023/05/17 01:30:14;;;;;;;3.80;1.77;;;17.00;44.20;;;;;;4987784;28;20427;-48
2023/05/17 01:32:43;;;;;;;2.63;2.13;;;16.90;44.20;;;;;;4989655;28;20500;-49
2023/05/17 01:35:11;;;;;;;2.70;2.43;;;17.00;44.50;;;;;;4991568;28;20478;-49
2023/05/17 01:37:37;;;;;;;2.60;2.40;;;17.00;45.30;;;;;;4984619;28;20859;-49
2023/05/17 01:40:04;;;;;;;3.63;2.43;;;17.00;45.70;;;;;;4992327;28;20460;-49
2023/05/17 01:42:31;;;;;;;5.00;2.40;;;17.00;45.20;;;;;;4985986;28;20500;-49
2023/05/17 01:45:11;;;;;;;4.10;2.30;;;17.00;45.50;;;;;;4984561;28;20496;-51
2023/05/17 01:47:52;;;;;;;7.47;2.10;;;16.90;45.50;;;;;;4978091;28;20445;-49
2023/05/17 01:50:22;;;;;;;4.20;2.30;;;16.90;45.70;;;;;;5006717;28;20506;-52
2023/05/17 01:52:52;;;;;;;4.23;2.10;;;16.90;46.60;;;;;;4987960;28;20474;-49
2023/05/17 01:55:39;;;;;;;3.47;2.30;;;16.90;46.50;;;;;;4988109;28;20445;-48
2023/05/17 01:58:07;;;;;;;5.37;2.23;;;17.00;46.50;;;;;;4994323;28;20441;-50
2023/05/17 02:00:34;;;;;;;4.13;2.40;;;17.00;47.20;;;;;;4994131;28;20457;-48
2023/05/17 02:03:00;;;;;;;2.43;1.80;;;17.10;47.10;;;;;;4999044;28;20461;-50
2023/05/17 02:05:25;;;;;;;7.03;2.57;;;17.20;46.30;;;;;;4991947;28;20469;-49
2023/05/17 02:07:51;;;;;;;4.73;2.20;;;17.20;46.90;;;;;;4984989;28;20202;-50
2023/05/17 02:10:16;;;;;;;4.77;2.20;;;17.20;46.50;;;;;;4991535;28;20187;-49
2023/05/17 02:12:42;;;;;;;2.80;1.90;;;17.20;45.40;;;;;;4988401;28;20226;-49
2023/05/17 02:15:10;;;;;;;2.53;1.80;;;17.20;46.40;;;;;;4990838;28;20256;-49
2023/05/17 02:17:38;;;;;;;3.33;2.20;;;17.20;46.30;;;;;;4997426;28;20456;-51
2023/05/17 02:20:04;;;;;;;5.57;2.40;;;17.20;46.00;;;;;;4987636;28;20446;-48
2023/05/17 02:22:30;;;;;;;3.17;2.63;;;17.20;46.70;;;;;;4991840;28;20923;-51
2023/05/17 02:24:55;;;;;;;2.20;1.93;;;17.20;46.80;;;;;;5009728;28;20484;-50
2023/05/17 02:27:21;;;;;;;5.37;2.47;;;17.20;46.40;;;;;;4988303;28;20551;-49
2023/05/17 02:29:47;;;;;;;3.80;2.03;;;17.20;46.10;;;;;;4992317;28;20186;-49
2023/05/17 02:32:12;;;;;;;3.67;2.30;;;17.20;46.70;;;;;;4998224;28;20190;-49
2023/05/17 02:34:38;;;;;;;2.30;1.63;;;17.30;47.20;;;;;;4981745;28;20286;-49
2023/05/17 02:37:04;;;;;;;3.63;2.10;;;17.30;46.50;;;;;;4990540;28;20210;-50
2023/05/17 02:39:32;;;;;;;4.00;2.00;;;17.30;46.10;;;;;;4980346;28;20558;-49
2023/05/17 02:41:58;;;;;;;2.90;2.10;;;17.20;45.40;;;;;;4984591;28;20987;-48
2023/05/17 02:44:23;;;;;;;4.73;2.00;;;17.20;44.50;;;;;;4990413;28;20477;-50
2023/05/17 02:46:49;;;;;;;3.07;2.00;;;17.10;44.30;;;;;;4983912;28;20195;-49
2023/05/17 02:49:14;;;;;;;5.60;1.77;;;17.00;44.30;;;;;;4983172;28;20561;-49
2023/05/17 02:51:40;;;;;;;2.50;1.53;;;17.00;45.50;;;;;;4991741;28;20298;-50
2023/05/17 02:54:05;;;;;;;3.07;1.93;;;16.90;45.50;;;;;;4990387;28;21451;-48
2023/05/17 02:56:31;;;;;;;4.63;2.13;;;16.90;45.00;;;;;;4987681;28;20218;-49
2023/05/17 02:59:00;;;;;;;3.37;2.00;;;16.90;44.80;;;;;;4986647;28;20194;-49
2023/05/17 03:01:26;;;;;;;2.10;1.90;;;16.90;45.20;;;;;;4983427;28;20986;-48
2023/05/17 03:03:51;;;;;;;2.77;1.63;;;16.90;44.90;;;;;;4986963;28;20476;-50
2023/05/17 03:06:17;;;;;;;3.40;2.00;;;16.90;44.90;;;;;;4989357;28;20797;-49
2023/05/17 03:08:43;;;;;;;2.20;2.00;;;16.90;45.20;;;;;;4987951;28;20205;-49
2023/05/17 03:11:08;;;;;;;3.23;2.33;;;16.90;45.60;;;;;;4987387;28;20475;-49
2023/05/17 03:13:34;;;;;;;4.40;1.90;;;16.80;45.10;;;;;;4987821;28;20241;-52
2023/05/17 03:15:59;;;;;;;4.60;1.87;;;16.80;44.80;;;;;;4990277;28;20194;-50
2023/05/17 03:18:25;;;;;;;2.50;2.10;;;16.70;44.30;;;;;;4988678;28;20270;-50
2023/05/17 03:20:50;;;;;;;2.53;1.93;;;16.40;43.80;;;;;;4992110;28;20217;-49
2023/05/17 03:23:16;;;;;;;2.87;2.30;;;16.00;44.80;;;;;;4990823;28;20269;-49
2023/05/17 03:25:41;;;;;;;2.10;1.90;;;15.70;44.80;;;;;;4989087;28;20194;-48
2023/05/17 03:28:07;;;;;;;2.50;2.27;;;15.30;45.40;;;;;;4982100;28;20183;-52
2023/05/17 03:30:33;;;;;;;2.20;2.00;;;15.00;46.00;;;;;;4982470;28;20213;-53
2023/05/17 03:32:58;;;;;;;2.73;1.83;;;14.70;46.60;;;;;;4984015;28;20199;-53
2023/05/17 03:35:24;;;;;;;2.83;2.10;;;14.50;47.20;;;;;;4983473;28;20215;-52
2023/05/17 03:37:49;;;;;;;2.93;1.70;;;14.30;47.70;;;;;;4990947;28;20190;-53
2023/05/17 03:40:15;;;;;;;5.13;2.00;;;;;;;;;;4995938;28;20206;-53
2023/05/17 03:42:41;;;;;;;4.57;2.30;;;13.90;48.10;;;;;;4988986;28;20195;-53
2023/05/17 03:45:07;;;;;;;3.93;2.03;;;13.80;49.00;;;;;;4988984;28;20489;-53
2023/05/17 03:47:33;;;;;;;3.77;2.03;;;13.70;49.20;;;;;;4982653;28;20995;-52
2023/05/17 03:49:59;;;;;;;3.60;2.20;;;13.60;49.70;;;;;;4986712;28;20434;-52
2023/05/17 03:52:24;;;;;;;4.30;2.13;;;13.50;49.70;;;;;;4988208;28;20189;-52
2023/05/17 03:54:50;;;;;;;4.17;2.03;;;13.50;49.80;;;;;;4990064;28;20562;-53
2023/05/17 03:57:16;;;;;;;6.30;2.40;;;13.50;49.80;;;;;;4984777;28;20248;-54
2023/05/17 03:59:41;;;;;;;5.37;2.10;;;13.40;49.80;;;;;;4974558;28;20191;-52
2023/05/17 04:02:07;;;;;;;5.07;1.90;;;13.40;50.20;;;;;;4988662;28;20189;-53
2023/05/17 04:04:33;;;;;;;6.90;2.10;;;13.30;50.40;;;;;;4994742;28;20222;-52
2023/05/17 04:06:58;;;;;;;3.20;2.20;;;13.30;50.60;;;;;;4988210;28;20653;-53
2023/05/17 04:09:24;;;;;;;4.10;2.37;;;13.30;50.60;;;;;;4989773;28;20660;-52
2023/05/17 04:11:50;;;;;;;2.30;2.10;;;13.20;50.50;;;;;;4989486;28;20273;-50
2023/05/17 04:14:17;;;;;;;3.67;2.10;;;13.20;50.60;;;;;;4988802;28;20584;-51
2023/05/17 04:16:42;;;;;;;5.30;2.20;;;13.20;50.80;;;;;;4982568;28;20186;-51
2023/05/17 04:19:08;;;;;;;3.27;2.00;;;13.10;50.90;;;;;;4990876;28;20434;-52
2023/05/17 04:21:34;;;;;;;2.60;2.00;;;13.00;51.10;;;;;;4991432;28;20191;-53
2023/05/17 04:23:59;;;;;;;2.70;2.20;;;13.00;51.30;;;;;;4992447;28;20344;-53
2023/05/17 04:26:25;;;;;;;2.57;1.83;;;12.90;51.70;;;;;;5000071;28;20560;-50
2023/05/17 04:28:51;;;;;;;2.27;2.07;;;12.90;52.00;;;;;;4979990;28;20208;-52
2023/05/17 04:31:17;;;;;;;3.80;1.97;;;12.90;52.20;;;;;;4992541;28;20977;-51
2023/05/17 04:33:42;;;;;;;5.70;1.73;;;12.90;52.50;;;;;;4991007;28;20198;-51
2023/05/17 04:36:08;;;;;;;4.27;2.27;;;12.90;52.50;;;;;;4991055;28;20549;-52
2023/05/17 04:38:34;;;;;;;3.50;2.20;;;12.90;52.60;;;;;;4989214;28;20186;-49
2023/05/17 04:41:06;;;;;;;4.73;2.37;;;12.90;52.60;;;;;;4990753;28;20194;-50
2023/05/17 04:43:32;;;;;;;4.17;2.20;;;12.90;52.60;;;;;;4990112;28;20285;-54
2023/05/17 04:45:58;;;;;;;2.77;2.27;;;12.90;52.60;;;;;;4992376;28;20949;-51
2023/05/17 04:48:26;;;;;;;3.20;2.10;;;12.90;52.70;;;;;;4990648;28;20433;-49
2023/05/17 04:50:52;;;;;;;4.33;2.23;;;12.90;52.70;;;;;;4987206;28;20814;-50
2023/05/17 04:53:18;;;;;;;6.43;2.23;;;12.90;52.70;;;;;;4987980;28;20438;-52
2023/05/17 04:55:44;;;;;;;3.00;2.13;;;13.00;52.80;;;;;;4993603;28;20932;-52
2023/05/17 04:58:10;;;;;;;2.70;2.40;;;13.00;52.80;;;;;;4989711;28;20245;-52
2023/05/17 05:00:36;;;;;;;5.47;2.43;;;13.00;52.90;;;;;;4988573;28;20933;-49
2023/05/17 05:03:03;;;;;;;3.23;2.00;;;13.00;52.80;;;;;;4985684;28;20622;-50
2023/05/17 05:05:30;;;;;;;3.87;1.97;;;13.10;52.80;;;;;;4992005;28;20237;-49
2023/05/17 05:07:56;;;;;;;4.30;2.20;;;13.10;52.90;;;;;;4992400;28;20438;-50
2023/05/17 05:10:22;;;;;;;4.40;2.27;;;13.20;52.90;;;;;;4989203;28;20468;-48
2023/05/17 05:12:47;;;;;;;2.13;2.03;;;13.20;52.80;;;;;;4954117;28;1106107;-51
2023/05/17 05:15:13;;;;;;;4.20;2.80;;;13.30;52.80;;;;;;5005376;28;20190;-50
2023/05/17 05:17:39;;;;;;;7.83;3.93;;;13.40;52.80;;;;;;4997349;28;20252;-49
2023/05/17 05:20:05;;;;;;;5.20;3.90;;;13.40;53.00;;;;;;4988144;28;20187;-51
2023/05/17 05:22:31;;;;;;;6.27;3.43;;;13.50;53.00;;;;;;4992136;28;20198;-49
2023/05/17 05:24:56;;;;;;;4.80;2.40;;;13.50;53.00;;;;;;4993404;28;20474;-51
2023/05/17 05:27:22;;;;;;;6.63;3.57;;;13.70;53.50;;;;;;4989090;28;20202;-53
2023/05/17 05:29:48;;;;;;;4.40;3.43;;;13.90;54.40;;;;;;4992140;28;20187;-54
2023/05/17 05:32:15;;;;;;;3.80;2.50;;;14.10;53.90;;;;;;4988638;28;20349;-52
2023/05/17 05:34:41;;;;;;;5.40;3.33;;;14.20;53.60;;;;;;4989732;28;20199;-53
2023/05/17 05:37:07;;;;;;;3.50;2.33;;;14.40;53.30;;;;;;4988075;28;20449;-52
2023/05/17 05:39:33;;;;;;;3.73;2.50;;;14.60;53.00;;;;;;4989863;28;20487;-52
2023/05/17 05:41:59;;;;;;;2.53;2.00;;;14.70;52.40;;;;;;4990088;28;20195;-53
2023/05/17 05:44:24;;;;;;;8.47;2.80;;;14.90;51.90;;;;;;4992582;28;20624;-51
2023/05/17 05:46:50;;;;;;;3.17;2.40;;;15.00;51.60;;;;;;4987968;28;20488;-53
2023/05/17 05:49:15;;;;;;;3.60;2.20;;;15.10;51.30;;;;;;4994330;28;20658;-51
2023/05/17 05:51:41;;;;;;;4.87;2.27;;;15.20;51.10;;;;;;4991415;28;20559;-52
2023/05/17 05:54:07;;;;;;;4.17;3.13;;;15.20;50.80;;;;;;4994725;28;20198;-49
2023/05/17 05:56:32;;;;;;;4.20;2.70;;;15.20;50.50;;;;;;4999452;28;20217;-51
2023/05/17 05:58:58;;;;;;;4.90;1.83;;;15.10;50.10;;;;;;4992867;28;20203;-50
2023/05/17 06:01:24;;;;;;;2.80;2.27;;;15.10;50.40;;;;;;4993649;28;20197;-52
2023/05/17 06:03:50;;;;;;;4.90;2.67;;;14.80;50.50;;;;;;4995950;28;20218;-48
2023/05/17 06:06:17;;;;;;;4.03;2.57;;;14.80;50.90;;;;;;5012571;28;20938;-48
2023/05/17 06:08:44;;;;;;;5.83;2.00;;;14.80;51.10;;;;;;4997625;28;20441;-51
2023/05/17 06:11:10;;;;;;;2.60;2.40;;;14.80;51.40;;;;;;4992549;28;21032;-48
2023/05/17 06:13:35;;;;;;;3.63;2.30;;;14.80;50.80;;;;;;4997032;28;20484;-51
2023/05/17 06:16:01;;;;;;;3.50;2.10;;;14.80;50.80;;;;;;5001582;28;20269;-48
2023/05/17 06:18:27;;;;;;;3.40;2.47;;;14.80;50.80;;;;;;4989251;28;20187;-51
2023/05/17 06:20:52;;;;;;;3.53;1.97;;;14.70;51.30;;;;;;4988661;28;20269;-52
2023/05/17 06:23:18;;;;;;;3.30;1.97;;;14.80;51.40;;;;;;4989958;28;20194;-49
2023/05/17 06:25:44;;;;;;;4.33;2.60;;;14.70;51.00;;;;;;4997966;28;20614;-52
2023/05/17 06:28:09;;;;;;;5.70;2.10;;;14.90;51.80;;;;;;4996386;28;20182;-51
2023/05/17 06:30:35;;;;;;;3.27;1.63;;;15.00;50.90;;;;;;4991080;28;20195;-48
2023/05/17 06:33:01;;;;;;;9.43;2.50;;;15.10;50.50;;;;;;4993677;28;20193;-48
2023/05/17 06:35:26;;;;;;;2.70;2.10;;;15.20;50.60;;;;;;5005101;28;20197;-51
2023/05/17 06:37:52;;;;;;;3.17;1.73;;;15.40;50.30;;;;;;5012154;28;20574;-51
2023/05/17 06:40:17;;;;;;;4.33;2.20;;;15.50;49.60;;;;;;4998506;28;20182;-49
2023/05/17 06:42:43;;;;;;;3.20;2.20;;;15.60;49.90;;;;;;4991809;28;20272;-49
2023/05/17 06:45:09;;;;;;;11.13;2.40;;;15.70;50.10;;;;;;4989355;28;20301;-48
2023/05/17 06:47:35;;;;;;;4.80;2.07;;;15.70;49.40;;;;;;4992136;28;20199;-48
2023/05/17 06:50:00;;;;;;;7.47;2.60;;;15.70;49.60;;;;;;4992505;28;20426;-48
2023/05/17 06:52:26;;;;;;;4.13;2.70;;;15.90;49.80;;;;;;4992574;28;20685;-48
2023/05/17 06:54:52;;;;;;;4.77;2.30;;;15.90;49.70;;;;;;4998507;28;20190;-50
2023/05/17 06:57:17;;;;;;;3.90;2.30;;;16.00;49.60;;;;;;4985594;28;20194;-49
2023/05/17 06:59:43;;;;;;;7.70;2.50;;;16.10;49.70;;;;;;4991857;28;20642;-48
2023/05/17 07:02:09;;;;;;;4.20;2.00;;;16.30;49.30;;;;;;4990843;28;20248;-49
2023/05/17 07:04:35;;;;;;;3.43;2.30;;;16.40;49.30;;;;;;4991179;28;20211;-48
2023/05/17 07:07:01;;;;;;;6.17;2.27;;;16.40;49.10;;;;;;4990041;28;20965;-50
2023/05/17 07:09:26;;;;;;;6.77;2.57;;;16.50;48.90;;;;;;4989176;28;20465;-49
2023/05/17 07:11:52;;;;;;;4.10;2.47;;;16.50;48.70;;;;;;4987899;28;20713;-49
2023/05/17 07:14:17;;;;;;;2.47;2.27;;;16.50;48.40;;;;;;4982726;28;20190;-50
2023/05/17 07:16:43;;;;;;;4.87;2.53;;;16.70;48.60;;;;;;4986203;28;20201;-49
2023/05/17 07:19:09;;;;;;;6.37;2.53;;;16.60;48.60;;;;;;4990464;28;20847;-51
2023/05/17 07:21:34;;;;;;;4.90;2.70;;;16.60;48.90;;;;;;4989817;28;20198;-50
2023/05/17 07:24:00;;;;;;;4.00;2.50;;;16.60;49.00;;;;;;4991041;28;20317;-49
2023/05/17 07:26:26;;;;;;;4.40;2.97;;;16.80;49.60;;;;;;4990259;28;20201;-49
2023/05/17 07:28:51;;;;;;;3.07;2.87;;;17.00;49.20;;;;;;4988950;28;20670;-50
2023/05/17 07:31:17;;;;;;;3.80;2.90;;;17.30;48.40;;;;;;4984214;28;20252;-50
2023/05/17 07:33:42;;;;;;;4.00;2.43;;;17.40;48.10;;;;;;4987027;28;20205;-50
2023/05/17 07:36:08;;;;;;;5.67;2.93;;;17.60;47.10;;;;;;4988565;28;20241;-51
2023/05/17 07:38:37;;;;;;;4.10;2.70;;;17.70;47.50;;;;;;4987034;28;20195;-50
2023/05/17 07:41:03;;;;;;;5.57;2.60;;;17.80;48.00;;;;;;4990491;28;20698;-49
2023/05/17 07:43:29;;;;;;;4.97;3.00;;;18.00;47.40;;;;;;4989821;28;20481;-49
2023/05/17 07:45:54;;;;;;;7.93;2.67;;;18.00;46.80;;;;;;4991258;28;20464;-46
2023/05/17 07:48:20;;;;;;;4.33;2.77;;;18.10;47.00;;;;;;4981735;28;20194;-52
2023/05/17 07:50:46;;;;;;;3.20;2.40;;;18.20;46.10;;;;;;4990102;28;20186;-51
2023/05/17 07:53:11;;;;;;;7.50;3.27;;;18.30;47.00;;;;;;4998918;28;20273;-50
2023/05/17 07:55:37;;;;;;;5.60;3.10;;;18.30;46.30;;;;;;4989213;28;20202;-49
2023/05/17 07:58:02;;;;;;;2.70;2.50;;;18.40;45.60;;;;;;4988523;28;20717;-47
2023/05/17 08:00:28;;;;;;;6.90;2.30;;;18.40;46.10;;;;;;4987175;28;20199;-48
2023/05/17 08:02:55;;;;;;;4.27;2.60;;;18.60;45.70;;;;;;4986960;28;20708;-49
2023/05/17 08:05:20;;;;;;;2.63;2.30;;;18.70;45.90;;;;;;4985696;28;20224;-52
2023/05/17 08:07:46;;;;;;;7.97;3.20;;;18.70;45.30;;;;;;4985414;28;20442;-49
2023/05/17 08:10:11;;;;;;;5.60;2.83;;;18.80;44.70;;;;;;4988430;28;20203;-53
2023/05/17 08:12:37;;;;;;;4.60;3.13;;;18.80;44.70;;;;;;4985461;28;20316;-49
2023/05/17 08:15:11;;;;;;;5.70;2.80;;;18.80;44.70;;;;;;4983970;28;20642;-51
2023/05/17 08:17:37;;;;;;;6.17;2.97;;;18.80;44.40;;;;;;4986161;28;20944;-52
2023/05/17 08:20:05;;;;;;;6.20;3.10;;;18.80;44.80;;;;;;4983668;28;20437;-48
2023/05/17 08:22:30;;;;;;;6.10;3.23;;;18.80;44.60;;;;;;4989229;28;20553;-52
2023/05/17 08:24:56;;;;;;;8.90;2.80;;;18.80;44.70;;;;;;4988737;28;20476;-49
2023/05/17 08:27:21;;;;;;;4.47;3.10;;;18.90;44.50;;;;;;4995336;28;20214;-47
2023/05/17 08:29:47;;;;;;;5.93;3.23;;;19.00;44.40;;;;;;4988512;28;20191;-47
2023/05/17 08:32:12;;;;;;;5.27;3.40;;;19.00;44.40;;;;;;4986710;28;20551;-52
2023/05/17 08:34:38;;;;;;;6.03;3.60;;;18.90;44.10;;;;;;4988665;28;20673;-51
2023/05/17 08:37:04;;;;;;;3.93;2.90;;;18.90;44.30;;;;;;4987244;28;20195;-53
2023/05/17 08:39:30;;;;;;;7.10;3.17;;;18.80;44.80;;;;;;4984813;28;20195;-53
2023/05/17 08:42:00;;;;;;;5.97;3.20;;;18.60;45.20;;;;;;4987386;28;20288;-48
2023/05/17 08:44:29;;;;;;;4.53;2.70;;;18.30;45.10;;;;;;4989112;28;20489;-49
2023/05/17 08:46:57;;;;;;;6.23;4.50;;;17.70;45.70;;;;;;4994848;28;20425;-49
2023/05/17 08:49:26;;;;;;;4.53;2.87;;;17.90;45.80;;;;;;4993544;28;20448;-51
2023/05/17 08:51:58;;;;;;;4.20;2.63;;;18.00;45.50;;;;;;4992556;28;20457;-50
2023/05/17 08:54:23;;;;;;;5.37;2.67;;;18.00;44.90;;;;;;4987762;28;20528;-49
2023/05/17 08:56:59;;;;;;;5.83;3.40;;;18.10;45.10;;;;;;4993081;28;20544;-50
2023/05/17 08:59:32;;;;;;;3.63;2.57;;;18.10;44.70;;;;;;4985424;28;20191;-49
2023/05/17 09:01:59;;;;;;;3.83;2.90;;;18.30;45.20;;;;;;4987425;28;20442;-49
2023/05/17 09:04:26;;;;;;;6.60;3.40;;;18.50;44.60;;;;;;4989956;28;20569;-50
2023/05/17 09:06:51;;;;;;;4.27;2.93;;;18.60;44.80;;;;;;4989591;28;20450;-50
2023/05/17 09:09:17;;;;;;;3.67;2.30;;;18.90;43.30;;;;;;4990500;28;20472;-48
2023/05/17 09:11:43;;;;;;;6.50;3.20;;;19.00;42.80;;;;;;4991606;28;20190;-49
2023/05/17 09:14:09;;;;;;;4.53;2.83;;;19.00;43.70;;;;;;4992157;28;20456;-48
2023/05/17 09:16:36;;;;;;;4.97;3.60;;;19.20;43.80;;;;;;4993233;28;20244;-48
2023/05/17 09:19:03;;;;;;;4.87;2.90;;;19.30;45.10;;;;;;4989910;28;20527;-48
2023/05/17 09:21:30;;;;;;;3.50;3.13;;;19.30;45.10;;;;;;4990392;28;20495;-48
2023/05/17 09:23:58;;;;;;;3.80;3.07;;;19.40;43.90;;;;;;4988563;28;20479;-48
2023/05/17 09:26:24;;;;;;;5.73;3.33;;;19.50;43.20;;;;;;4988895;28;20481;-48
2023/05/17 09:28:52;;;;;;;5.20;3.37;;;19.30;44.10;;;;;;4988884;28;20836;-48
2023/05/17 09:31:18;;;;;;;3.33;2.90;;;19.30;44.20;;;;;;4989909;28;20199;-47
2023/05/17 09:33:47;;;;;;;4.63;3.17;;;19.20;44.40;;;;;;4985749;28;20450;-48
2023/05/17 09:36:21;;;;;;;5.17;3.60;;;19.20;45.20;;;;;;4986333;28;20469;-48
2023/05/17 09:38:53;;;;;;;7.40;3.40;;;19.40;44.30;;;;;;4986544;28;20438;-49
2023/05/17 09:41:20;;;;;;;3.70;2.83;;;19.50;44.30;;;;;;4989566;28;20999;-50
2023/05/17 09:43:46;;;;;;;6.97;3.20;;;19.60;43.30;;;;;;4993588;28;20473;-48
2023/05/17 09:46:14;;;;;;;4.50;2.67;;;19.70;42.00;;;;;;4994749;28;20445;-49
2023/05/17 09:48:39;;;;;;;6.37;2.80;;;19.70;42.90;;;;;;4990381;28;20193;-48
2023/05/17 09:51:06;;;;;;;5.70;3.10;;;19.60;42.70;;;;;;4993731;28;20894;-50
2023/05/17 09:53:37;;;;;;;7.33;3.23;;;19.70;42.50;;;;;;4993514;28;20197;-47
2023/05/17 09:59:28;;;;;;;4.73;2.73;;;19.60;42.60;;;;;;4853826;28;20833;-51
2023/05/17 10:01:55;;;;;;;6.73;2.77;;;19.60;42.10;;;;;;5045500;28;20451;-49
2023/05/17 10:04:26;;;;;;;4.43;2.53;;;19.80;41.40;;;;;;5045918;28;20574;-51
2023/05/17 10:06:52;;;;;;;3.73;2.90;;;19.80;41.40;;;;;;5048300;28;20916;-53
2023/05/17 10:09:21;;;;;;;3.93;2.83;;;20.00;40.70;;;;;;5050038;28;20488;-51
2023/05/17 10:11:47;;;;;;;5.03;3.23;;;19.90;41.40;;;;;;5048478;28;20443;-52
2023/05/17 10:14:33;;;;;;;3.40;2.77;;;20.00;40.90;;;;;;5049597;28;20797;-53
2023/05/17 10:17:00;;;;;;;4.80;2.83;;;20.10;39.20;;;;;;5031615;28;20420;-53
2023/05/17 10:19:26;;;;;;;4.40;2.87;;;20.10;39.10;;;;;;5043808;28;20439;-48
2023/05/17 10:21:53;;;;;;;4.23;2.83;;;20.20;39.70;;;;;;5046519;28;20446;-49
2023/05/17 10:24:22;;;;;;;4.30;2.20;;;20.30;39.30;;;;;;5050277;28;20499;-52
2023/05/17 10:26:51;;;;;;;4.20;2.80;;;20.00;39.50;;;;;;5049812;28;20467;-47
2023/05/17 10:29:19;;;;;;;5.63;3.03;;;19.80;39.80;;;;;;5045834;28;20439;-48
2023/05/17 10:31:46;;;;;;;4.33;2.97;;;19.90;39.40;;;;;;5050031;28;20819;-48
2023/05/17 10:34:14;;;;;;;5.37;3.00;;;20.00;39.90;;;;;;5046071;28;20850;-47
2023/05/17 10:36:42;;;;;;;3.30;2.60;;;20.20;40.50;;;;;;5048479;28;20446;-46
2023/05/17 10:39:07;;;;;;;4.50;3.53;;;20.20;39.90;;;;;;5047491;28;20478;-50
2023/05/17 10:41:34;;;;;;;5.60;3.30;;;20.30;41.00;;;;;;5051697;28;20451;-47
2023/05/17 10:44:03;;;;;;;3.33;2.67;;;20.00;41.40;;;;;;5040928;28;20224;-47
2023/05/17 10:46:29;;;;;;;3.77;2.80;;;20.00;41.30;;;;;;5044200;28;20449;-46
2023/05/17 10:48:57;;;;;;;5.20;2.77;;;20.00;40.90;;;;;;5044897;28;20447;-47
2023/05/17 10:51:26;;;;;;;4.57;2.80;;;20.00;40.90;;;;;;5045510;28;20445;-46
2023/05/17 10:54:11;;;;;;;4.70;3.07;;;19.90;41.00;;;;;;5048687;28;20613;-47
2023/05/17 10:56:45;;;;;;;4.90;3.43;;;19.90;42.20;;;;;;5030723;28;20440;-47
2023/05/17 10:59:25;;;;;;;8.50;3.70;;;19.80;41.90;;;;;;5047991;28;20482;-48
2023/05/17 11:02:07;;;;;;;2.70;2.50;;;19.80;41.60;;;;;;5042365;28;20447;-48
2023/05/17 11:04:40;;;;;;;5.20;2.67;;;19.90;40.90;;;;;;5050887;28;20567;-46
2023/05/17 11:07:18;;;;;;;4.33;3.00;;;20.10;40.00;;;;;;5049802;28;20446;-46
2023/05/17 11:10:05;;;;;;;3.90;3.37;;;20.20;40.30;;;;;;5049078;28;20447;-47
2023/05/17 11:12:42;;;;;;;7.87;3.63;;;20.20;40.30;;;;;;5042481;28;20459;-47
2023/05/17 11:15:13;;;;;;;6.87;3.73;;;20.10;38.50;;;;;;5047440;28;20919;-47
2023/05/17 11:17:41;;;;;;;5.40;3.40;;;20.20;39.30;;;;;;5048891;28;20525;-46
2023/05/17 11:20:27;;;;;;;6.10;3.67;;;20.10;38.30;;;;;;5049515;28;20451;-47
2023/05/17 11:23:06;;;;;;;7.37;3.13;;;19.90;38.10;;;;;;5049348;28;20470;-49
2023/05/17 11:25:37;;;;;;;3.43;2.90;;;20.00;39.20;;;;;;5050924;28;20578;-47
2023/05/17 11:28:18;;;;;;;6.83;2.90;;;19.80;40.10;;;;;;5049711;28;20442;-47
2023/05/17 11:30:49;;;;;;;4.50;2.80;;;19.80;40.20;;;;;;5048818;28;20475;-51
2023/05/17 11:33:16;;;;;;;3.83;2.40;;;20.00;39.80;;;;;;5043066;28;20463;-48
2023/05/17 11:35:42;;;;;;;5.40;3.07;;;20.10;40.50;;;;;;5049103;28;20442;-48
2023/05/17 11:38:18;;;;;;;4.43;3.13;;;20.00;40.60;;;;;;5044382;28;20523;-47
2023/05/17 11:40:46;;;;;;;3.03;2.70;;;20.00;42.00;;;;;;5044557;28;20458;-48
2023/05/17 11:43:23;;;;;;;5.07;3.13;;;20.00;41.80;;;;;;5048799;28;20475;-48
2023/05/17 11:45:56;;;;;;;4.77;3.13;;;20.00;41.70;;;;;;5037725;28;20462;-46
2023/05/17 11:48:24;;;;;;;6.00;2.97;;;19.60;42.60;;;;;;5046622;28;20825;-47
2023/05/17 11:50:52;;;;;;;4.70;2.80;;;19.30;42.30;;;;;;5048503;28;20966;-46
2023/05/17 11:53:18;;;;;;;3.40;2.33;;;19.40;42.00;;;;;;5037847;28;20444;-49
2023/05/17 11:55:49;;;;;;;3.83;2.80;;;19.40;41.90;;;;;;5031611;28;20483;-48
2023/05/17 11:58:17;;;;;;;3.00;2.63;;;19.40;42.10;;;;;;5035393;28;20546;-47
2023/05/17 12:00:43;;;;;;;3.03;2.43;;;19.50;42.40;;;;;;5029933;28;20466;-47
2023/05/17 12:03:23;;;;;;;4.93;2.67;;;19.40;41.60;;;;;;5049667;28;20439;-46
2023/05/17 12:05:51;;;;;;;4.07;2.40;;;19.40;41.00;;;;;;5045528;28;21299;-50
2023/05/17 12:08:18;;;;;;;4.97;2.60;;;19.30;42.50;;;;;;5048409;28;20439;-46
2023/05/17 12:10:47;;;;;;;6.63;2.93;;;19.10;41.90;;;;;;5047969;28;20933;-52
2023/05/17 12:13:13;;;;;;;3.93;3.07;;;19.20;42.30;;;;;;5039643;28;20458;-54
2023/05/17 12:15:40;;;;;;;4.60;2.90;;;19.60;42.00;;;;;;5037761;28;20512;-48
2023/05/17 12:18:06;;;;;;;5.93;4.10;;;19.70;41.20;;;;;;5049907;28;20188;-47
2023/05/17 12:20:31;;;;;;;5.43;3.17;;;19.70;40.80;;;;;;5048911;28;20464;-48
2023/05/17 12:22:57;;;;;;;6.57;2.73;;;19.60;39.90;;;;;;5048998;28;20683;-48
2023/05/17 12:25:28;;;;;;;6.50;3.10;;;19.70;40.50;;;;;;5050080;28;20373;-47
2023/05/17 12:28:12;;;;;;;3.47;2.80;;;19.80;40.90;;;;;;5051010;28;20196;-46
2023/05/17 12:30:38;;;;;;;3.77;2.73;;;20.00;40.20;;;;;;5046346;28;20463;-48
2023/05/17 12:33:06;;;;;;;4.43;2.80;;;20.10;41.00;;;;;;5049611;28;20504;-46
2023/05/17 12:35:32;;;;;;;3.70;3.00;;;20.10;40.40;;;;;;5047422;28;20549;-50
2023/05/17 12:37:58;;;;;;;4.50;2.83;;;20.20;40.70;;;;;;5048541;28;20485;-50
2023/05/17 12:40:24;;;;;;;6.60;3.40;;;20.00;41.30;;;;;;5050750;28;20500;-52
2023/05/17 12:42:50;;;;;;;5.10;3.13;;;20.10;41.40;;;;;;5048718;28;20451;-48
2023/05/17 12:45:16;;;;;;;5.30;2.90;;;20.00;42.20;;;;;;5041235;28;20268;-49
2023/05/17 12:47:42;;;;;;;7.00;3.40;;;20.10;42.60;;;;;;5038056;28;20891;-50
2023/05/17 12:50:08;;;;;;;4.63;3.47;;;20.00;42.90;;;;;;5050847;28;20200;-48
2023/05/17 12:52:35;;;;;;;6.23;3.07;;;20.10;42.20;;;;;;5038477;28;20458;-48